Cameron, Arizona
Current Conditions -  °F | °C
As of 8:54 PM on Saturday 25 Oct 2014 (Local Time) from KGCN Reporting Station
Clear Clear  
Wind Chill: 54°   Ceiling: Unl
Heat Index: 54°   Visibility: 10mi
Dew Point: 39°   Wind: 3mph
Humidity: 57%   Direction: 240°WSW
Pressure: 30.24"   Gusts: NA
Location:  35.88°N, 111.41°W
Report Text: KGCN 260254Z AUTO 24003KT 10SM CLR 12/04 A3024 RMK AO2 SLP194 T01220039 55000
Loading
Personal Weather Stations






























Interactive Weather Map
Tropical Storm Tracking
New forecast layout! Learn more

10-Day Weather Forecast

Advertisements
Track Severe Weather on mobile